Time;durP1;ratioP1;P1;durP2;ratioP2;P2;SDS_P1;SDS_P2;PMS_P1;PMS_P2;Temp;Humidity;BMP_temperature;BMP_pressure;BME280_temperature;BME280_humidity;BME280_pressure;Samples;Min_cycle;Max_cycle;Signal;HPM_P1;HPM_P2
2023/05/02 00:03:03;;;;;;;12.90;9.00;;;8.50;99.90;;;;;;12575719;23;20591;-83
2023/05/02 00:08:06;;;;;;;17.53;9.10;;;8.50;99.90;;;;;;12554655;23;20202;-83
2023/05/02 00:13:08;;;;;;;17.20;10.03;;;8.60;99.90;;;;;;12554586;23;20537;-83
2023/05/02 00:18:11;;;;;;;16.43;9.50;;;8.70;99.90;;;;;;12530367;23;20182;-83
2023/05/02 00:23:13;;;;;;;18.73;10.20;;;8.80;99.90;;;;;;12554820;23;20658;-83
2023/05/02 00:28:16;;;;;;;16.03;9.70;;;8.90;99.90;;;;;;12553820;23;20190;-83
2023/05/02 00:33:19;;;;;;;11.77;9.17;;;8.90;99.90;;;;;;12553478;23;20229;-83
2023/05/02 00:38:21;;;;;;;16.43;10.37;;;9.00;99.90;;;;;;12553348;23;20218;-83
2023/05/02 00:43:24;;;;;;;16.37;8.47;;;9.10;99.90;;;;;;12554039;23;20182;-83
2023/05/02 00:48:27;;;;;;;16.50;9.47;;;9.10;99.90;;;;;;12528479;23;20230;-83
2023/05/02 00:53:31;;;;;;;14.87;9.13;;;9.20;99.90;;;;;;12552221;23;20233;-83
2023/05/02 00:58:34;;;;;;;12.40;9.20;;;9.20;99.90;;;;;;12552469;23;20519;-83
2023/05/02 01:04:20;;;;;;;17.70;8.97;;;9.20;99.90;;;;;;12553814;23;20249;-83
2023/05/02 01:09:49;;;;;;;16.43;10.10;;;9.30;99.90;;;;;;12551864;23;20673;-83
2023/05/02 01:14:57;;;;;;;13.53;9.30;;;9.30;99.90;;;;;;12556384;23;20174;-83
2023/05/02 01:20:07;;;;;;;12.57;9.37;;;9.30;99.90;;;;;;12571687;23;20780;-83
2023/05/02 01:25:15;;;;;;;13.30;9.43;;;9.30;99.90;;;;;;12570070;23;20190;-83
2023/05/02 01:30:20;;;;;;;15.27;9.33;;;9.30;99.90;;;;;;12554799;23;20505;-83
2023/05/02 01:35:23;;;;;;;16.00;9.63;;;9.20;99.90;;;;;;12553560;23;20498;-83
2023/05/02 01:40:26;;;;;;;12.60;9.20;;;9.30;99.90;;;;;;12553466;23;20191;-83
2023/05/02 01:45:30;;;;;;;16.57;9.60;;;9.40;99.90;;;;;;12551211;23;20540;-83
2023/05/02 01:50:33;;;;;;;13.43;9.67;;;9.40;99.90;;;;;;12553400;23;20498;-83
2023/05/02 01:55:37;;;;;;;13.83;9.37;;;9.50;99.90;;;;;;12575554;23;20186;-83
2023/05/02 02:00:43;;;;;;;16.73;9.87;;;9.60;99.90;;;;;;12552805;23;20214;-83
2023/05/02 02:05:49;;;;;;;15.87;9.53;;;9.60;99.90;;;;;;12554332;23;20210;-83
2023/05/02 02:10:58;;;;;;;17.77;9.70;;;9.80;99.90;;;;;;12554404;23;20202;-83
2023/05/02 02:16:03;;;;;;;14.13;9.70;;;9.80;99.90;;;;;;12555358;23;20237;-83
2023/05/02 02:21:08;;;;;;;15.80;9.33;;;9.90;99.90;;;;;;12530788;23;20171;-83
2023/05/02 02:26:12;;;;;;;16.10;9.60;;;10.00;99.90;;;;;;12555466;23;20510;-83
2023/05/02 02:31:14;;;;;;;16.30;10.10;;;10.00;99.90;;;;;;12554775;23;20178;-83
2023/05/02 02:36:52;;;;;;;15.73;10.07;;;10.00;99.90;;;;;;12573345;23;20179;-83
2023/05/02 02:42:13;;;;;;;13.97;9.87;;;10.00;99.90;;;;;;12554509;23;20182;-83
2023/05/02 02:47:26;;;;;;;20.60;10.97;;;10.10;99.90;;;;;;12572574;23;20194;-83
2023/05/02 02:52:57;;;;;;;15.80;9.83;;;10.10;99.90;;;;;;12554308;23;20178;-83
2023/05/02 02:58:18;;;;;;;11.10;7.63;;;10.00;99.90;;;;;;12566191;23;20513;-83
2023/05/02 03:03:27;;;;;;;12.80;9.97;;;10.20;99.90;;;;;;12573767;23;20261;-83
2023/05/02 03:08:41;;;;;;;15.23;10.70;;;10.30;99.90;;;;;;12556519;23;20261;-83
2023/05/02 03:13:48;;;;;;;15.90;10.83;;;10.20;99.90;;;;;;12553280;23;20193;-83
2023/05/02 03:18:54;;;;;;;14.80;10.27;;;10.20;99.90;;;;;;12529817;23;20245;-83
2023/05/02 03:24:01;;;;;;;15.30;10.90;;;10.40;99.90;;;;;;12529935;23;20202;-83
2023/05/02 03:29:04;;;;;;;15.33;10.13;;;10.40;99.90;;;;;;12552885;23;20178;-83
2023/05/02 03:34:12;;;;;;;14.40;10.10;;;10.50;99.90;;;;;;12553425;23;20186;-83
2023/05/02 03:39:16;;;;;;;14.80;10.27;;;10.40;99.90;;;;;;12552669;23;20510;-83
2023/05/02 03:44:20;;;;;;;18.23;10.73;;;10.40;99.90;;;;;;12553288;23;20190;-83
2023/05/02 03:49:22;;;;;;;18.80;11.17;;;10.30;99.90;;;;;;12529240;23;20179;-83
2023/05/02 03:54:30;;;;;;;14.73;11.80;;;10.30;99.90;;;;;;12552992;23;20186;-83
2023/05/02 03:59:34;;;;;;;14.43;10.40;;;10.30;99.90;;;;;;12528807;23;20525;-83
2023/05/02 04:04:46;;;;;;;8.33;4.77;;;10.30;99.90;;;;;;12528698;23;20206;-83
2023/05/02 04:09:51;;;;;;;7.53;5.70;;;10.70;99.90;;;;;;12576446;23;20226;-83
2023/05/02 04:14:54;;;;;;;6.47;4.53;;;11.20;99.90;;;;;;12552121;23;20194;-83
2023/05/02 04:20:02;;;;;;;14.70;9.17;;;11.80;99.90;;;;;;12527858;23;20223;-83
2023/05/02 04:25:09;;;;;;;10.40;6.57;;;12.30;99.90;;;;;;12569140;23;20194;-83
2023/05/02 04:30:14;;;;;;;6.83;4.50;;;12.60;99.90;;;;;;12551065;23;20178;-83
2023/05/02 04:35:22;;;;;;;7.17;5.87;;;12.80;99.90;;;;;;12552121;23;20537;-83
2023/05/02 04:40:25;;;;;;;5.70;4.13;;;13.20;99.90;;;;;;12527657;23;20179;-83
2023/05/02 04:45:35;;;;;;;4.07;3.63;;;13.40;99.00;;;;;;12528102;23;20265;-83
2023/05/02 04:50:44;;;;;;;12.23;7.90;;;13.50;98.50;;;;;;12527002;23;20232;-83
2023/05/02 04:55:47;;;;;;;9.53;8.03;;;13.30;99.20;;;;;;12553262;23;20555;-83
2023/05/02 05:00:50;;;;;;;15.27;11.47;;;13.10;99.90;;;;;;12551264;23;20488;-83
2023/05/02 05:05:52;;;;;;;24.07;12.63;;;12.80;99.90;;;;;;12553283;23;20246;-83
2023/05/02 05:10:57;;;;;;;18.23;12.37;;;12.20;99.90;;;;;;12527618;23;20231;-83
2023/05/02 05:16:01;;;;;;;18.67;13.43;;;11.70;99.90;;;;;;12551440;23;20179;-83
2023/05/02 05:21:07;;;;;;;16.57;12.73;;;11.50;99.90;;;;;;12550662;23;20183;-83
2023/05/02 05:26:12;;;;;;;19.53;14.50;;;11.20;99.90;;;;;;12550885;23;20673;-83
2023/05/02 05:31:16;;;;;;;18.90;13.27;;;11.10;99.90;;;;;;12551740;23;20633;-83
2023/05/02 05:36:23;;;;;;;20.00;13.57;;;11.00;99.90;;;;;;12551098;23;20178;-83
2023/05/02 05:41:26;;;;;;;19.27;12.40;;;10.90;99.90;;;;;;12574195;23;20617;-83
2023/05/02 05:46:35;;;;;;;18.17;13.13;;;10.90;99.90;;;;;;12555495;23;20551;-83
2023/05/02 05:51:40;;;;;;;18.63;12.57;;;11.00;99.90;;;;;;12557192;23;20171;-83
2023/05/02 05:56:43;;;;;;;21.57;13.57;;;11.10;99.90;;;;;;12555075;23;20183;-83
2023/05/02 06:01:49;;;;;;;19.63;14.27;;;11.20;99.90;;;;;;12573978;23;20509;-83
2023/05/02 06:06:55;;;;;;;21.47;13.90;;;11.40;99.90;;;;;;12531199;23;20210;-83
2023/05/02 06:12:01;;;;;;;22.13;15.00;;;11.50;99.90;;;;;;12554668;23;20203;-83
2023/05/02 06:17:06;;;;;;;21.30;13.30;;;11.70;99.90;;;;;;12574203;23;20622;-83
2023/05/02 06:22:11;;;;;;;18.37;12.57;;;11.90;99.90;;;;;;12531145;23;20190;-83
2023/05/02 06:27:14;;;;;;;17.97;13.10;;;12.20;99.90;;;;;;12555200;23;20202;-83
2023/05/02 06:32:17;;;;;;;7.53;5.63;;;12.50;99.90;;;;;;12556506;23;20242;-83
2023/05/02 06:37:20;;;;;;;18.80;13.03;;;12.80;99.90;;;;;;12556318;23;20513;-83
2023/05/02 06:42:22;;;;;;;14.57;9.57;;;13.20;99.90;;;;;;12556704;23;20246;-83
2023/05/02 06:47:25;;;;;;;5.50;4.37;;;13.50;99.90;;;;;;12556015;23;20191;-83
2023/05/02 06:52:27;;;;;;;5.27;4.73;;;13.80;99.90;;;;;;12556707;23;20699;-83
2023/05/02 06:57:30;;;;;;;4.73;3.63;;;14.20;99.90;;;;;;12553625;23;20214;-83
2023/05/02 07:02:33;;;;;;;3.97;3.53;;;14.60;97.10;;;;;;12554652;23;20517;-83
2023/05/02 07:07:35;;;;;;;7.33;6.13;;;14.80;96.30;;;;;;12555618;23;20202;-83
2023/05/02 07:12:38;;;;;;;6.40;5.37;;;15.00;96.30;;;;;;12555668;23;20242;-83
2023/05/02 07:17:41;;;;;;;6.30;4.93;;;15.30;95.20;;;;;;12555428;23;20182;-82
2023/05/02 07:22:43;;;;;;;4.30;3.90;;;15.40;94.80;;;;;;12554260;23;20566;-83
2023/05/02 07:27:46;;;;;;;8.23;5.63;;;15.60;94.70;;;;;;12555797;23;20254;-83
2023/05/02 07:32:48;;;;;;;4.10;2.97;;;15.80;96.40;;;;;;12555281;23;20167;-83
2023/05/02 07:37:51;;;;;;;4.93;3.17;;;15.90;92.70;;;;;;12555579;23;20265;-83
2023/05/02 07:42:53;;;;;;;4.93;3.67;;;16.10;90.10;;;;;;12554975;23;20653;-83
2023/05/02 07:47:55;;;;;;;3.77;3.27;;;16.10;89.10;;;;;;12555300;23;20186;-83
2023/05/02 07:52:59;;;;;;;5.33;4.60;;;16.30;87.00;;;;;;12554885;23;20234;-83
2023/05/02 07:58:02;;;;;;;6.20;4.63;;;16.40;87.40;;;;;;12555391;23;20262;-83
2023/05/02 08:03:06;;;;;;;6.23;5.40;;;16.40;84.80;;;;;;12554579;23;20170;-83
2023/05/02 08:08:09;;;;;;;3.70;3.37;;;16.50;86.90;;;;;;12554858;23;20515;-83
2023/05/02 08:13:11;;;;;;;4.37;3.33;;;16.60;83.30;;;;;;12565572;23;20177;-83
2023/05/02 08:18:14;;;;;;;3.70;3.33;;;16.60;81.40;;;;;;12553775;23;20183;-83
2023/05/02 08:23:16;;;;;;;5.33;2.80;;;16.60;80.10;;;;;;12554512;23;20478;-83
2023/05/02 08:28:19;;;;;;;6.17;3.97;;;16.60;79.00;;;;;;12552717;23;20290;-83
2023/05/02 08:33:22;;;;;;;5.57;4.10;;;16.60;80.30;;;;;;12529538;23;20210;-83
2023/05/02 08:38:25;;;;;;;4.27;3.43;;;16.60;77.90;;;;;;12554109;23;20638;-83
2023/05/02 08:43:30;;;;;;;5.93;3.53;;;16.50;77.60;;;;;;12563742;23;20199;-83
2023/05/02 08:48:41;;;;;;;7.37;3.90;;;16.50;77.30;;;;;;12553662;23;20259;-83
2023/05/02 08:53:44;;;;;;;4.63;4.07;;;16.50;76.60;;;;;;12554220;23;20554;-83
2023/05/02 08:58:47;;;;;;;3.67;3.30;;;16.60;76.50;;;;;;12562454;23;20203;-83
2023/05/02 09:03:51;;;;;;;7.00;3.57;;;16.70;76.50;;;;;;12553998;23;20218;-83
2023/05/02 09:08:54;;;;;;;5.43;4.87;;;16.60;74.90;;;;;;12553548;23;20206;-83
2023/05/02 09:14:02;;;;;;;4.20;3.80;;;16.70;76.90;;;;;;12553214;23;20182;-83
2023/05/02 09:19:05;;;;;;;7.70;4.87;;;16.70;73.70;;;;;;12553649;23;20669;-83
2023/05/02 09:24:21;;;;;;;5.47;4.17;;;16.80;74.30;;;;;;12553677;23;20170;-83
2023/05/02 09:29:24;;;;;;;6.13;4.93;;;16.90;73.00;;;;;;12551564;23;20201;-83
2023/05/02 09:34:26;;;;;;;4.73;3.43;;;16.80;73.20;;;;;;12552352;23;20182;-83
2023/05/02 09:39:29;;;;;;;5.77;4.17;;;16.80;72.80;;;;;;12552635;23;20185;-83
2023/05/02 09:44:38;;;;;;;9.37;6.53;;;16.80;73.10;;;;;;12552876;23;20500;-83
2023/05/02 09:49:43;;;;;;;11.17;7.43;;;16.80;75.30;;;;;;12553930;23;20221;-83
2023/05/02 09:54:49;;;;;;;6.70;3.93;;;17.10;73.70;;;;;;12528110;23;20574;-83
2023/05/02 09:59:54;;;;;;;6.83;5.43;;;17.20;68.80;;;;;;12552290;23;20183;-83
2023/05/02 10:04:57;;;;;;;4.83;3.93;;;17.20;65.40;;;;;;12551270;23;20179;-83
2023/05/02 10:10:01;;;;;;;7.00;4.87;;;17.20;66.90;;;;;;12550832;23;20560;-83
2023/05/02 10:15:08;;;;;;;6.07;4.20;;;17.10;61.80;;;;;;12528192;23;20238;-83
2023/05/02 10:20:17;;;;;;;4.97;3.10;;;17.10;64.70;;;;;;12569921;23;20171;-83
2023/05/02 10:25:20;;;;;;;3.67;2.77;;;17.20;63.70;;;;;;12553383;23;20250;-83
2023/05/02 10:30:23;;;;;;;3.97;3.47;;;17.20;60.60;;;;;;12556447;23;20203;-83
2023/05/02 10:35:26;;;;;;;3.47;2.60;;;17.20;63.50;;;;;;12556390;23;20184;-83
2023/05/02 10:40:30;;;;;;;5.67;3.10;;;17.20;61.70;;;;;;12555147;23;20166;-83
2023/05/02 10:45:34;;;;;;;4.37;3.07;;;17.30;61.40;;;;;;12556085;23;20239;-83
2023/05/02 10:50:48;;;;;;;4.20;2.40;;;17.60;56.70;;;;;;12555952;23;20230;-83
2023/05/02 10:56:12;;;;;;;6.63;3.90;;;17.60;57.90;;;;;;12555972;23;20186;-83
2023/05/02 11:01:27;;;;;;;4.30;3.83;;;17.40;47.20;;;;;;12555603;23;20183;-83
2023/05/02 11:06:33;;;;;;;7.67;3.43;;;17.50;45.00;;;;;;12555753;23;20594;-83
2023/05/02 11:11:42;;;;;;;8.37;3.67;;;17.60;45.90;;;;;;12531172;23;20206;-83
2023/05/02 11:17:05;;;;;;;10.30;4.33;;;17.60;46.10;;;;;;12572592;23;20166;-83
2023/05/02 11:22:17;;;;;;;7.80;3.90;;;17.70;45.90;;;;;;12556808;23;20188;-83
2023/05/02 11:27:29;;;;;;;5.67;3.53;;;17.80;48.40;;;;;;12555277;23;20258;-83
2023/05/02 11:32:44;;;;;;;6.67;3.97;;;17.80;50.70;;;;;;12555609;23;20640;-83
2023/05/02 11:37:54;;;;;;;7.40;3.57;;;17.80;51.10;;;;;;12554890;23;20202;-83
2023/05/02 11:42:58;;;;;;;3.93;2.73;;;17.90;46.50;;;;;;12554387;23;20253;-83
2023/05/02 11:48:04;;;;;;;4.73;3.37;;;18.00;49.00;;;;;;12555265;23;20498;-83
2023/05/02 11:53:11;;;;;;;3.97;3.23;;;17.90;47.90;;;;;;12555162;23;20178;-82
2023/05/02 11:58:19;;;;;;;5.60;3.37;;;18.30;45.00;;;;;;12554384;23;20500;-83
2023/05/02 12:03:22;;;;;;;2.67;2.27;;;18.30;45.70;;;;;;12570140;23;20178;-83
2023/05/02 12:08:27;;;;;;;2.80;2.53;;;18.20;42.00;;;;;;12552990;23;20253;-83
2023/05/02 12:13:29;;;;;;;3.90;2.43;;;18.40;42.80;;;;;;12529377;23;20199;-83
2023/05/02 12:18:32;;;;;;;5.13;3.27;;;18.50;40.60;;;;;;12554952;23;20496;-83
2023/05/02 12:23:35;;;;;;;6.00;3.70;;;18.50;43.30;;;;;;12554461;23;20171;-83
2023/05/02 12:28:49;;;;;;;4.13;3.73;;;18.40;40.70;;;;;;12552645;23;20581;-83
2023/05/02 12:33:56;;;;;;;6.23;4.07;;;18.40;42.30;;;;;;12545141;23;20167;-83
2023/05/02 12:39:00;;;;;;;5.73;5.17;;;18.50;42.10;;;;;;12572115;23;20222;-83
2023/05/02 12:44:04;;;;;;;5.80;3.50;;;18.70;43.90;;;;;;12553792;23;20194;-83
2023/05/02 12:49:08;;;;;;;9.63;5.07;;;18.60;44.60;;;;;;12553709;23;20591;-83
2023/05/02 12:54:19;;;;;;;6.67;5.80;;;18.30;45.70;;;;;;12553668;23;20172;-83
2023/05/02 12:59:26;;;;;;;6.83;4.90;;;18.20;46.10;;;;;;12575801;23;20190;-83
2023/05/02 13:04:35;;;;;;;9.97;6.00;;;18.10;47.40;;;;;;12554599;23;20234;-83
2023/05/02 13:09:38;;;;;;;4.67;3.80;;;18.00;47.40;;;;;;12552235;23;20198;-83
2023/05/02 13:14:40;;;;;;;13.50;6.53;;;18.00;48.90;;;;;;12552618;23;20238;-83
2023/05/02 13:19:43;;;;;;;7.33;4.90;;;17.90;51.40;;;;;;12553383;23;20182;-83
2023/05/02 13:25:06;;;;;;;7.80;4.97;;;17.80;50.60;;;;;;12553783;23;20186;-83
2023/05/02 13:30:10;;;;;;;12.87;8.23;;;17.50;53.90;;;;;;12554272;23;20204;-83
2023/05/02 13:35:14;;;;;;;5.50;4.03;;;17.40;56.20;;;;;;12552234;23;20649;-83
2023/05/02 13:40:17;;;;;;;5.47;4.53;;;17.40;56.00;;;;;;12552172;23;20547;-83
2023/05/02 13:45:19;;;;;;;5.17;4.37;;;17.30;57.70;;;;;;12553904;23;20240;-83
2023/05/02 13:50:22;;;;;;;6.10;4.07;;;17.40;58.10;;;;;;12552306;23;20665;-83
2023/05/02 13:55:25;;;;;;;4.63;4.00;;;17.50;57.70;;;;;;12553238;23;20178;-83
2023/05/02 14:00:28;;;;;;;3.13;2.83;;;17.30;58.20;;;;;;12554901;23;20246;-83
2023/05/02 14:05:30;;;;;;;4.97;3.83;;;17.30;56.40;;;;;;12557067;23;20509;-83
2023/05/02 14:10:35;;;;;;;7.43;3.20;;;17.20;56.70;;;;;;12554839;23;20215;-83
2023/05/02 14:15:37;;;;;;;2.87;2.17;;;17.10;56.20;;;;;;12556580;23;20190;-83
2023/05/02 14:20:39;;;;;;;4.63;2.63;;;16.90;55.20;;;;;;12555961;23;20528;-83
2023/05/02 14:25:42;;;;;;;5.97;3.80;;;16.90;56.40;;;;;;12556265;23;20171;-83
2023/05/02 14:30:47;;;;;;;3.47;2.87;;;16.90;56.60;;;;;;12555616;23;20497;-83
2023/05/02 14:35:50;;;;;;;8.97;2.77;;;16.90;56.00;;;;;;12531237;23;20234;-83
2023/05/02 14:40:53;;;;;;;2.20;1.77;;;16.80;52.30;;;;;;12557522;23;20231;-82
2023/05/02 14:45:57;;;;;;;5.57;1.53;;;16.80;55.40;;;;;;12555952;23;20556;-83
2023/05/02 14:51:02;;;;;;;3.70;1.73;;;16.90;54.30;;;;;;12556460;23;20183;-82
2023/05/02 14:56:11;;;;;;;3.13;2.23;;;16.70;50.10;;;;;;12555463;23;20182;-82
2023/05/02 15:01:18;;;;;;;1.63;1.43;;;16.50;52.50;;;;;;12553231;23;20725;-83
2023/05/02 15:06:20;;;;;;;2.67;2.47;;;16.50;50.40;;;;;;12555807;23;20198;-82
2023/05/02 15:11:23;;;;;;;1.47;1.33;;;16.40;52.10;;;;;;12554183;23;20202;-82
2023/05/02 15:16:25;;;;;;;5.20;3.40;;;16.50;51.40;;;;;;12555806;23;20223;-82
2023/05/02 15:21:29;;;;;;;3.53;2.23;;;16.60;53.20;;;;;;12554220;23;20218;-82
2023/05/02 15:26:32;;;;;;;1.57;1.27;;;16.60;52.20;;;;;;12554732;23;20724;-82
2023/05/02 15:31:35;;;;;;;6.60;3.00;;;16.60;52.90;;;;;;12555405;23;20433;-83
2023/05/02 15:36:37;;;;;;;7.07;5.43;;;16.40;52.60;;;;;;12571519;23;20506;-82
2023/05/02 15:41:40;;;;;;;2.73;2.30;;;16.30;52.00;;;;;;12555269;23;20572;-82
2023/05/02 15:46:45;;;;;;;2.07;1.73;;;16.30;54.70;;;;;;12572521;23;20515;-83
2023/05/02 15:51:48;;;;;;;3.90;2.17;;;16.20;59.00;;;;;;12554631;23;20215;-83
2023/05/02 15:56:51;;;;;;;4.30;2.80;;;16.10;62.90;;;;;;12554452;23;20246;-82
2023/05/02 16:01:53;;;;;;;5.67;2.80;;;16.10;62.30;;;;;;12552479;23;20186;-83
2023/05/02 16:06:56;;;;;;;4.03;2.63;;;15.90;64.60;;;;;;12554812;23;20576;-83
2023/05/02 16:12:00;;;;;;;3.60;2.67;;;15.70;65.80;;;;;;12553805;23;20265;-83
2023/05/02 16:17:02;;;;;;;7.87;3.00;;;15.50;67.20;;;;;;12554448;23;20253;-82
2023/05/02 16:22:05;;;;;;;5.57;2.70;;;15.60;68.50;;;;;;12555167;23;20172;-83
2023/05/02 16:27:08;;;;;;;2.57;2.33;;;15.70;69.70;;;;;;12553346;23;20262;-83
2023/05/02 16:32:11;;;;;;;3.07;2.77;;;15.60;67.30;;;;;;12553997;23;20243;-82
2023/05/02 16:37:14;;;;;;;3.90;2.50;;;15.70;68.60;;;;;;12572050;23;20495;-82
2023/05/02 16:42:16;;;;;;;2.30;1.87;;;15.70;64.90;;;;;;12554202;23;20225;-83
2023/05/02 16:47:20;;;;;;;1.97;1.50;;;15.60;63.50;;;;;;12554520;23;20202;-82
2023/05/02 16:52:23;;;;;;;4.57;1.80;;;15.30;64.60;;;;;;12553811;23;20194;-83
2023/05/02 16:57:26;;;;;;;5.13;2.40;;;15.00;65.80;;;;;;12553708;23;20634;-82
2023/05/02 17:02:28;;;;;;;2.93;2.33;;;14.70;67.70;;;;;;12554041;23;20170;-83
2023/05/02 17:07:31;;;;;;;5.03;2.30;;;14.60;70.70;;;;;;12553707;23;20191;-82
2023/05/02 17:12:33;;;;;;;3.50;2.30;;;14.40;74.40;;;;;;12552381;23;20175;-82
2023/05/02 17:17:36;;;;;;;3.53;1.90;;;14.20;74.60;;;;;;12553534;23;20182;-83
2023/05/02 17:22:40;;;;;;;4.27;2.10;;;14.00;76.00;;;;;;12553982;23;20182;-82
2023/05/02 17:27:43;;;;;;;8.73;2.53;;;;;;;;;;12553884;23;20238;-82
2023/05/02 17:32:45;;;;;;;7.43;2.40;;;14.00;80.40;;;;;;12555675;23;20182;-82
2023/05/02 17:37:48;;;;;;;5.13;3.83;;;13.90;83.40;;;;;;12557796;23;20547;-83
2023/05/02 17:42:50;;;;;;;3.20;2.50;;;13.90;85.80;;;;;;12557399;23;20178;-82
2023/05/02 17:47:53;;;;;;;3.63;2.20;;;14.10;85.30;;;;;;12557419;23;20527;-83
2023/05/02 17:52:57;;;;;;;3.47;2.60;;;14.00;83.50;;;;;;12557913;23;20567;-82
2023/05/02 17:57:59;;;;;;;6.57;2.60;;;13.90;85.50;;;;;;12556793;23;20219;-82
2023/05/02 18:03:02;;;;;;;13.57;2.80;;;13.80;81.40;;;;;;12557365;23;20194;-82
2023/05/02 18:08:06;;;;;;;6.93;3.50;;;13.70;84.60;;;;;;12555319;23;20230;-82
2023/05/02 18:13:08;;;;;;;5.83;3.20;;;13.60;83.60;;;;;;12556826;23;20553;-82
2023/05/02 18:18:11;;;;;;;5.87;2.87;;;13.60;88.10;;;;;;12557034;23;20492;-82
2023/05/02 18:23:14;;;;;;;7.90;3.53;;;13.60;87.40;;;;;;12554784;23;20186;-82
2023/05/02 18:28:16;;;;;;;9.93;3.90;;;13.50;88.10;;;;;;12555652;23;20253;-82
2023/05/02 18:33:18;;;;;;;3.57;2.83;;;13.20;90.50;;;;;;12556712;23;20200;-82
2023/05/02 18:38:21;;;;;;;3.40;3.10;;;13.20;90.80;;;;;;12556006;23;20187;-82
2023/05/02 18:43:23;;;;;;;6.73;3.40;;;13.00;90.60;;;;;;12568900;23;20250;-82
2023/05/02 18:48:26;;;;;;;3.87;3.47;;;13.00;90.80;;;;;;12529745;23;20681;-82
2023/05/02 18:53:29;;;;;;;9.33;4.87;;;13.10;92.50;;;;;;12556656;23;20166;-82
2023/05/02 18:58:32;;;;;;;4.17;3.43;;;;;;;;;;12556429;23;20174;-83
2023/05/02 19:03:35;;;;;;;9.10;3.87;;;12.70;91.60;;;;;;12556834;23;20518;-82
2023/05/02 19:08:39;;;;;;;5.27;4.27;;;12.40;92.90;;;;;;12555501;23;20258;-82
2023/05/02 19:13:41;;;;;;;10.80;5.40;;;12.40;93.70;;;;;;12555491;23;20203;-82
2023/05/02 19:18:44;;;;;;;5.97;3.63;;;12.50;94.20;;;;;;12555697;23;20250;-83
2023/05/02 19:23:47;;;;;;;4.07;3.50;;;12.60;94.50;;;;;;12556309;23;20219;-82
2023/05/02 19:28:49;;;;;;;4.47;3.37;;;12.60;94.50;;;;;;12556072;23;20737;-82
2023/05/02 19:33:53;;;;;;;6.53;3.50;;;12.70;95.00;;;;;;12555845;23;20493;-83
2023/05/02 19:38:58;;;;;;;5.83;3.27;;;12.90;92.60;;;;;;12553243;23;20567;-83
2023/05/02 19:44:01;;;;;;;5.03;3.20;;;12.80;90.90;;;;;;12554353;23;20190;-83
2023/05/02 19:49:03;;;;;;;7.57;3.87;;;12.80;92.80;;;;;;12555055;23;20263;-83
2023/05/02 19:54:06;;;;;;;3.70;3.33;;;12.70;91.10;;;;;;12555204;23;20223;-83
2023/05/02 19:59:09;;;;;;;6.47;3.77;;;12.80;93.20;;;;;;12552841;23;20186;-83
2023/05/02 20:04:11;;;;;;;6.17;4.07;;;12.80;92.90;;;;;;12555739;23;20242;-83
2023/05/02 20:09:14;;;;;;;6.07;4.00;;;12.70;92.50;;;;;;12566249;23;20233;-83
2023/05/02 20:14:17;;;;;;;6.90;4.27;;;12.60;93.40;;;;;;12554705;23;20483;-82
2023/05/02 20:19:20;;;;;;;3.63;3.23;;;12.60;93.60;;;;;;12554841;23;20517;-83
2023/05/02 20:24:23;;;;;;;6.37;3.50;;;12.50;94.20;;;;;;12554024;23;20182;-83
2023/05/02 20:29:26;;;;;;;4.90;3.70;;;12.20;93.90;;;;;;12552877;23;20508;-83
2023/05/02 20:34:28;;;;;;;5.17;3.73;;;;;;;;;;12554667;23;20167;-83
2023/05/02 20:39:31;;;;;;;6.63;4.10;;;12.00;95.30;;;;;;12554144;23;20186;-83
2023/05/02 20:44:35;;;;;;;7.97;4.03;;;11.80;95.20;;;;;;12554183;23;20566;-83
2023/05/02 20:49:37;;;;;;;10.73;6.03;;;11.70;96.50;;;;;;12552007;23;20232;-83
2023/05/02 20:54:42;;;;;;;14.17;6.43;;;11.50;95.50;;;;;;12554454;23;20238;-83
2023/05/02 20:59:45;;;;;;;7.30;5.33;;;11.20;95.50;;;;;;12553497;23;20243;-83
2023/05/02 21:04:48;;;;;;;11.87;5.07;;;11.10;97.10;;;;;;12552688;23;20182;-83
2023/05/02 21:09:50;;;;;;;8.33;4.90;;;11.10;97.10;;;;;;12553798;23;20206;-83
2023/05/02 21:14:53;;;;;;;7.77;4.70;;;11.00;97.00;;;;;;12553488;23;20182;-83
2023/05/02 21:19:55;;;;;;;6.20;3.70;;;;;;;;;;12554291;23;20242;-83
2023/05/02 21:24:58;;;;;;;7.40;4.83;;;11.00;97.60;;;;;;12569537;23;20483;-83
2023/05/02 21:30:00;;;;;;;9.80;4.63;;;10.90;96.30;;;;;;12553234;23;20594;-83
2023/05/02 21:35:03;;;;;;;7.33;3.93;;;10.70;96.20;;;;;;12575156;23;20634;-83
2023/05/02 21:40:07;;;;;;;5.50;3.60;;;10.60;95.30;;;;;;12553489;23;20699;-83
2023/05/02 21:45:10;;;;;;;7.87;4.40;;;10.60;94.80;;;;;;12552577;23;20250;-83
2023/05/02 21:50:12;;;;;;;7.50;3.43;;;10.60;94.50;;;;;;12553338;23;20202;-83
2023/05/02 21:55:15;;;;;;;5.37;3.83;;;10.50;94.30;;;;;;12554263;23;20527;-83
2023/05/02 22:00:17;;;;;;;6.43;3.47;;;10.40;93.80;;;;;;12553621;23;20174;-83
2023/05/02 22:05:21;;;;;;;5.67;3.43;;;;;;;;;;12553545;23;20170;-83
2023/05/02 22:10:23;;;;;;;12.20;4.20;;;10.30;93.10;;;;;;12552151;23;20206;-83
2023/05/02 22:15:26;;;;;;;8.67;3.30;;;10.30;93.50;;;;;;12551623;23;20300;-83
2023/05/02 22:20:29;;;;;;;5.90;2.73;;;10.30;94.50;;;;;;12555371;23;20186;-83
2023/05/02 22:25:31;;;;;;;5.77;3.20;;;10.20;92.60;;;;;;12556950;23;20171;-83
2023/05/02 22:30:34;;;;;;;4.97;3.23;;;10.10;92.80;;;;;;12556913;23;20187;-83
2023/05/02 22:35:36;;;;;;;4.97;2.97;;;10.00;92.90;;;;;;12556897;23;20166;-83
2023/05/02 22:40:39;;;;;;;4.93;3.50;;;10.00;93.50;;;;;;12556941;23;20229;-83
2023/05/02 22:45:42;;;;;;;9.00;4.00;;;10.00;93.10;;;;;;12556459;23;20186;-83
2023/05/02 22:50:46;;;;;;;12.03;3.97;;;9.90;92.90;;;;;;12556648;23;20266;-83
2023/05/02 22:55:50;;;;;;;7.50;3.90;;;9.90;92.10;;;;;;12556419;23;20163;-83
2023/05/02 23:00:53;;;;;;;6.97;3.53;;;9.90;91.80;;;;;;12556514;23;20513;-82
2023/05/02 23:05:55;;;;;;;5.70;3.63;;;9.90;92.00;;;;;;12557620;23;20182;-82
2023/05/02 23:10:58;;;;;;;7.70;3.43;;;9.90;91.40;;;;;;12556054;23;20206;-82
2023/05/02 23:16:03;;;;;;;6.60;3.07;;;9.70;91.10;;;;;;12556330;23;20222;-82
2023/05/02 23:21:13;;;;;;;6.27;2.97;;;9.80;91.60;;;;;;12555097;23;20191;-83
2023/05/02 23:26:16;;;;;;;7.30;2.77;;;9.70;91.10;;;;;;12556225;23;20571;-82
2023/05/02 23:31:18;;;;;;;4.80;3.03;;;9.60;91.80;;;;;;12558437;23;20566;-83
2023/05/02 23:36:21;;;;;;;5.83;3.07;;;9.60;92.10;;;;;;12557651;23;20174;-83
2023/05/02 23:41:25;;;;;;;7.63;3.47;;;9.50;92.60;;;;;;12555989;23;20173;-83
2023/05/02 23:46:27;;;;;;;5.13;3.07;;;9.50;92.70;;;;;;12530383;23;20175;-82
2023/05/02 23:51:30;;;;;;;7.70;3.60;;;9.60;94.90;;;;;;12532167;23;20202;-82
2023/05/02 23:56:33;;;;;;;4.37;3.30;;;9.70;93.60;;;;;;12573067;23;20203;-82
